Time;durP1;ratioP1;P1;durP2;ratioP2;P2;SDS_P1;SDS_P2;PMS_P1;PMS_P2;Temp;Humidity;BMP_temperature;BMP_pressure;BME280_temperature;BME280_humidity;BME280_pressure;Samples;Min_cycle;Max_cycle;Signal;HPM_P1;HPM_P2
2023/04/19 00:01:45;;;;;;;4.00;1.52;;;13.20;73.70;;;;;;6220107;22;20035;-77
2023/04/19 00:04:13;;;;;;;5.55;1.75;;;13.20;73.80;;;;;;6222279;22;20055;-77
2023/04/19 00:06:41;;;;;;;4.85;1.40;;;13.20;73.40;;;;;;6224096;22;20023;-77
2023/04/19 00:09:08;;;;;;;3.92;1.20;;;13.20;73.80;;;;;;6222718;22;20030;-77
2023/04/19 00:11:35;;;;;;;2.75;1.20;;;13.10;73.30;;;;;;6220828;22;20016;-77
2023/04/19 00:14:03;;;;;;;3.35;1.60;;;13.20;73.40;;;;;;6246644;22;20722;-77
2023/04/19 00:16:30;;;;;;;3.42;1.48;;;13.10;73.50;;;;;;6248436;22;20350;-77
2023/04/19 00:18:57;;;;;;;4.75;1.33;;;13.10;73.40;;;;;;6222849;22;20019;-77
2023/04/19 00:21:25;;;;;;;2.63;1.60;;;13.10;73.20;;;;;;6247267;22;20107;-77
2023/04/19 00:23:52;;;;;;;3.53;1.80;;;13.20;73.20;;;;;;6221189;22;20676;-77
2023/04/19 00:26:20;;;;;;;3.13;1.35;;;13.10;72.90;;;;;;6246576;22;20034;-78
2023/04/19 00:28:50;;;;;;;3.58;1.35;;;13.20;73.10;;;;;;6221761;22;20012;-76
2023/04/19 00:31:17;;;;;;;3.92;1.40;;;13.10;72.60;;;;;;6221238;22;20016;-77
2023/04/19 00:33:44;;;;;;;5.88;1.92;;;13.10;72.80;;;;;;6221887;22;20676;-77
2023/04/19 00:36:11;;;;;;;3.42;1.73;;;13.10;72.60;;;;;;6245995;22;20793;-76
2023/04/19 00:38:39;;;;;;;3.63;1.73;;;13.10;72.70;;;;;;6245841;22;20054;-77
2023/04/19 00:41:09;;;;;;;2.90;1.60;;;13.10;72.80;;;;;;6245473;22;20125;-77
2023/04/19 00:43:36;;;;;;;5.38;1.42;;;13.10;73.00;;;;;;6220762;22;20018;-77
2023/04/19 00:46:03;;;;;;;2.88;1.38;;;13.10;72.90;;;;;;6246775;22;20042;-77
2023/04/19 00:48:31;;;;;;;4.32;1.60;;;13.00;72.90;;;;;;6221915;22;20065;-76
2023/04/19 00:50:58;;;;;;;3.95;1.30;;;13.00;73.10;;;;;;6246395;22;20019;-78
2023/04/19 00:53:25;;;;;;;5.35;1.77;;;13.00;72.90;;;;;;6245820;22;20020;-77
2023/04/19 00:55:55;;;;;;;3.22;1.42;;;13.00;73.10;;;;;;6246032;22;20031;-77
2023/04/19 00:58:24;;;;;;;6.93;1.55;;;12.90;72.90;;;;;;6246198;22;20020;-76
2023/04/19 01:00:51;;;;;;;3.03;1.40;;;12.90;73.10;;;;;;6244401;22;20073;-76
2023/04/19 01:03:19;;;;;;;3.35;1.70;;;12.90;73.10;;;;;;6244374;22;20030;-77
2023/04/19 01:05:47;;;;;;;3.15;1.70;;;12.80;73.00;;;;;;6222064;22;20020;-77
2023/04/19 01:08:14;;;;;;;3.95;1.33;;;12.80;72.90;;;;;;6246189;22;20023;-76
2023/04/19 01:10:41;;;;;;;3.88;1.52;;;12.80;73.00;;;;;;6220829;22;20015;-76
2023/04/19 01:13:08;;;;;;;2.80;1.65;;;12.70;73.40;;;;;;6217849;22;20489;-76
2023/04/19 01:15:36;;;;;;;3.78;1.55;;;12.70;73.20;;;;;;6220313;22;20024;-77
2023/04/19 01:18:04;;;;;;;3.33;1.55;;;12.60;73.60;;;;;;6220654;22;20394;-77
2023/04/19 01:20:31;;;;;;;3.15;1.30;;;12.60;73.70;;;;;;6247264;22;20138;-77
2023/04/19 01:22:58;;;;;;;3.85;1.60;;;12.60;73.90;;;;;;6220192;22;20061;-76
2023/04/19 01:25:26;;;;;;;3.33;1.50;;;12.60;73.90;;;;;;6221766;22;20107;-77
2023/04/19 01:27:53;;;;;;;3.65;1.30;;;12.50;74.20;;;;;;6221609;22;20016;-76
2023/04/19 01:30:22;;;;;;;2.90;1.85;;;12.40;74.40;;;;;;6246438;22;20069;-77
2023/04/19 01:32:50;;;;;;;2.70;1.50;;;12.40;74.50;;;;;;6220653;22;20024;-77
2023/04/19 01:35:17;;;;;;;5.05;1.92;;;12.40;74.80;;;;;;6246263;22;20020;-77
2023/04/19 01:37:44;;;;;;;3.28;1.52;;;12.40;74.70;;;;;;6245802;22;20016;-77
2023/04/19 01:40:11;;;;;;;3.83;1.33;;;12.30;75.00;;;;;;6219799;22;20030;-76
2023/04/19 01:42:38;;;;;;;3.70;1.50;;;12.30;75.40;;;;;;6272831;22;20087;-76
2023/04/19 01:45:06;;;;;;;2.97;1.85;;;12.30;75.40;;;;;;6221280;22;20019;-77
2023/04/19 01:47:33;;;;;;;4.10;1.48;;;12.30;75.60;;;;;;6244931;22;20435;-77
2023/04/19 01:50:01;;;;;;;4.50;1.50;;;12.20;75.60;;;;;;6245595;22;20027;-76
2023/04/19 01:52:28;;;;;;;2.70;1.27;;;12.20;75.70;;;;;;6245148;22;20031;-78
2023/04/19 01:54:55;;;;;;;2.80;1.40;;;12.20;75.70;;;;;;6245102;22;20027;-77
2023/04/19 01:57:22;;;;;;;3.13;1.33;;;12.30;75.90;;;;;;6245932;22;20639;-77
2023/04/19 01:59:50;;;;;;;3.38;1.63;;;12.20;75.40;;;;;;6244643;22;20340;-77
2023/04/19 02:02:17;;;;;;;3.38;1.58;;;12.20;75.50;;;;;;6217929;22;20019;-77
2023/04/19 02:04:44;;;;;;;3.63;1.48;;;12.20;75.20;;;;;;6243525;22;20046;-76
2023/04/19 02:07:11;;;;;;;4.07;1.55;;;12.20;75.20;;;;;;6218985;22;20023;-77
2023/04/19 02:09:39;;;;;;;4.30;1.40;;;12.20;75.50;;;;;;6219836;22;20015;-76
2023/04/19 02:12:06;;;;;;;3.38;1.33;;;12.30;75.50;;;;;;6219336;22;20114;-77
2023/04/19 02:14:34;;;;;;;3.08;1.42;;;12.20;75.40;;;;;;6216887;22;20444;-76
2023/04/19 02:17:01;;;;;;;4.10;1.70;;;12.20;75.20;;;;;;6245534;22;20500;-77
2023/04/19 02:19:28;;;;;;;3.38;1.77;;;12.10;75.30;;;;;;6219436;22;20070;-77
2023/04/19 02:21:58;;;;;;;4.78;1.92;;;12.20;75.50;;;;;;6221699;22;20110;-77
2023/04/19 02:24:25;;;;;;;2.85;1.40;;;12.20;75.30;;;;;;6221039;22;20039;-77
2023/04/19 02:26:52;;;;;;;4.15;1.42;;;12.20;75.30;;;;;;6221103;22;20090;-76
2023/04/19 02:29:19;;;;;;;3.88;1.80;;;12.10;74.80;;;;;;6246211;22;20028;-76
2023/04/19 02:31:47;;;;;;;3.83;1.77;;;12.10;75.00;;;;;;6219493;22;20097;-76
2023/04/19 02:34:14;;;;;;;3.97;1.52;;;12.10;75.00;;;;;;6244812;22;20023;-77
2023/04/19 02:36:41;;;;;;;1.92;1.08;;;12.10;74.60;;;;;;6220214;22;20059;-77
2023/04/19 02:39:09;;;;;;;2.55;1.20;;;12.00;74.00;;;;;;6245270;22;20024;-76
2023/04/19 02:41:37;;;;;;;3.75;1.48;;;12.00;74.10;;;;;;6220535;22;20621;-77
2023/04/19 02:44:04;;;;;;;3.42;1.05;;;12.00;74.20;;;;;;6220871;22;20061;-77
2023/04/19 02:46:33;;;;;;;2.13;1.33;;;12.00;74.10;;;;;;6220279;22;20103;-76
2023/04/19 02:49:00;;;;;;;3.97;1.50;;;11.90;74.40;;;;;;6220260;22;20611;-76
2023/04/19 02:51:29;;;;;;;2.80;1.20;;;11.90;74.20;;;;;;6218708;22;20023;-77
2023/04/19 02:53:56;;;;;;;2.50;1.00;;;11.90;74.20;;;;;;6243453;22;20031;-76
2023/04/19 02:56:24;;;;;;;3.72;1.42;;;11.90;73.90;;;;;;6217404;22;20115;-76
2023/04/19 02:58:53;;;;;;;2.67;1.33;;;11.90;74.00;;;;;;6218467;22;20034;-77
2023/04/19 03:01:20;;;;;;;2.13;1.00;;;11.80;74.00;;;;;;6221449;22;20059;-77
2023/04/19 03:03:47;;;;;;;3.33;1.52;;;11.80;73.70;;;;;;6220016;22;20091;-76
2023/04/19 03:06:15;;;;;;;3.47;1.30;;;11.80;73.50;;;;;;6221041;22;20046;-77
2023/04/19 03:08:42;;;;;;;5.10;1.60;;;11.80;73.70;;;;;;6219132;22;20148;-77
2023/04/19 03:11:11;;;;;;;2.10;1.20;;;11.80;73.70;;;;;;6220147;22;20478;-76
2023/04/19 03:13:39;;;;;;;3.05;1.52;;;11.70;73.50;;;;;;6246221;22;20019;-77
2023/04/19 03:16:07;;;;;;;3.63;1.13;;;11.70;73.50;;;;;;6244065;22;20106;-77
2023/04/19 03:18:35;;;;;;;2.55;1.25;;;11.70;73.50;;;;;;6245017;22;20030;-77
2023/04/19 03:21:03;;;;;;;3.10;1.08;;;11.70;73.70;;;;;;6219368;22;20451;-76
2023/04/19 03:23:38;;;;;;;5.15;1.45;;;11.70;73.90;;;;;;6223729;22;20016;-76
2023/04/19 03:26:06;;;;;;;2.55;1.25;;;11.60;74.10;;;;;;6247059;22;20024;-77
2023/04/19 03:28:45;;;;;;;3.40;1.58;;;11.60;74.00;;;;;;6188665;23;20675;-76
2023/04/19 03:31:19;;;;;;;5.30;1.63;;;11.60;74.10;;;;;;6187723;23;20016;-76
2023/04/19 03:33:49;;;;;;;2.60;1.13;;;11.50;73.90;;;;;;6209570;23;20095;-77
2023/04/19 03:36:19;;;;;;;3.35;1.55;;;11.60;74.10;;;;;;6211214;23;20024;-76
2023/04/19 03:38:46;;;;;;;4.32;1.40;;;11.60;74.00;;;;;;6186817;23;20400;-76
2023/04/19 03:41:25;;;;;;;5.20;1.73;;;11.50;74.20;;;;;;6187655;23;20099;-76
2023/04/19 03:44:09;;;;;;;3.00;1.63;;;11.50;74.10;;;;;;6189290;23;20028;-77
2023/04/19 03:46:40;;;;;;;3.97;1.65;;;11.50;74.50;;;;;;6209745;23;20552;-76
2023/04/19 03:49:08;;;;;;;3.13;1.60;;;11.50;74.50;;;;;;6209414;23;20024;-76
2023/04/19 03:51:35;;;;;;;5.43;1.45;;;11.50;74.70;;;;;;6211142;23;20017;-77
2023/04/19 03:54:02;;;;;;;4.30;1.60;;;11.40;74.80;;;;;;6185349;23;20762;-77
2023/04/19 03:56:30;;;;;;;3.90;1.40;;;11.40;74.70;;;;;;6209993;23;20039;-77
2023/04/19 03:58:57;;;;;;;5.20;2.00;;;11.40;74.80;;;;;;6193693;22;20098;-77
2023/04/19 04:01:25;;;;;;;4.20;1.50;;;11.40;74.90;;;;;;6208599;22;20028;-76
2023/04/19 04:03:54;;;;;;;4.10;1.48;;;11.30;75.10;;;;;;6220567;22;20019;-77
2023/04/19 04:06:22;;;;;;;4.00;1.58;;;11.40;75.10;;;;;;6245021;22;20027;-77
2023/04/19 04:08:49;;;;;;;3.42;1.30;;;11.30;75.20;;;;;;6222861;22;20027;-77
2023/04/19 04:11:16;;;;;;;5.00;1.85;;;11.40;75.50;;;;;;6220824;22;20024;-77
2023/04/19 04:13:47;;;;;;;3.72;1.50;;;11.40;75.70;;;;;;6223796;22;20790;-76
2023/04/19 04:16:18;;;;;;;4.27;1.80;;;11.30;75.60;;;;;;6274109;22;20020;-77
2023/04/19 04:18:46;;;;;;;4.65;1.70;;;11.30;75.80;;;;;;6221666;22;20023;-76
2023/04/19 04:21:14;;;;;;;5.22;2.08;;;11.30;75.80;;;;;;6247675;22;20028;-76
2023/04/19 04:23:46;;;;;;;6.32;2.33;;;11.30;75.70;;;;;;6222914;22;20015;-77
2023/04/19 04:26:24;;;;;;;10.88;5.90;;;11.30;76.30;;;;;;6223914;22;20415;-77
2023/04/19 04:29:07;;;;;;;6.22;2.55;;;11.30;76.30;;;;;;6225965;22;20020;-78
2023/04/19 04:31:36;;;;;;;6.03;2.60;;;11.30;76.40;;;;;;6221076;22;20019;-77
2023/04/19 04:34:03;;;;;;;4.35;1.25;;;11.40;76.70;;;;;;6221307;22;20024;-78
2023/04/19 04:36:35;;;;;;;3.42;1.75;;;11.40;76.50;;;;;;6248184;22;20107;-76
2023/04/19 04:39:05;;;;;;;3.83;1.70;;;11.40;76.50;;;;;;6221986;22;20069;-77
2023/04/19 04:41:32;;;;;;;3.85;1.55;;;11.50;76.60;;;;;;6247701;22;20074;-77
2023/04/19 04:44:00;;;;;;;5.60;1.83;;;11.50;77.10;;;;;;6221780;22;20026;-77
2023/04/19 04:46:30;;;;;;;3.10;1.50;;;11.60;77.30;;;;;;6224108;22;20031;-76
2023/04/19 04:48:57;;;;;;;5.15;2.13;;;11.60;77.70;;;;;;6223012;22;20026;-77
2023/04/19 04:51:25;;;;;;;3.63;1.65;;;11.50;78.10;;;;;;6222870;22;20015;-77
2023/04/19 04:53:54;;;;;;;4.22;1.58;;;11.50;78.80;;;;;;6222745;22;20073;-76
2023/04/19 04:56:22;;;;;;;5.80;2.20;;;11.50;79.50;;;;;;6223782;22;20020;-78
2023/04/19 04:58:49;;;;;;;6.65;2.53;;;11.50;80.20;;;;;;6246981;22;20025;-77
2023/04/19 05:01:25;;;;;;;5.32;2.40;;;11.60;80.70;;;;;;6223633;22;20016;-76
2023/04/19 05:03:53;;;;;;;4.97;2.33;;;11.60;80.80;;;;;;6246172;22;20081;-77
2023/04/19 05:06:20;;;;;;;4.05;2.40;;;11.70;80.90;;;;;;6216247;22;20034;-76
2023/04/19 05:08:47;;;;;;;6.20;2.80;;;11.70;80.90;;;;;;6210417;22;20107;-77
2023/04/19 05:11:30;;;;;;;;;;;11.70;81.10;;;;;;6204387;22;20492;-77
2023/04/19 05:13:57;;;;;;;5.40;2.42;;;11.80;81.00;;;;;;6211037;22;19925;-77
2023/04/19 05:16:26;;;;;;;4.40;2.20;;;11.70;80.70;;;;;;6236917;22;20027;-77
2023/04/19 05:18:54;;;;;;;5.68;2.40;;;11.70;80.80;;;;;;6216762;22;20098;-76
2023/04/19 05:21:22;;;;;;;5.78;2.30;;;11.80;81.10;;;;;;6211271;22;20019;-76
2023/04/19 05:23:52;;;;;;;3.90;2.28;;;11.80;80.60;;;;;;6236220;22;20135;-77
2023/04/19 05:26:20;;;;;;;5.85;2.20;;;11.80;80.20;;;;;;6234976;22;20055;-76
2023/04/19 05:28:49;;;;;;;6.70;2.47;;;11.90;80.20;;;;;;6213658;22;20023;-77
2023/04/19 05:31:21;;;;;;;6.90;2.40;;;11.90;80.20;;;;;;6213608;22;20020;-77
2023/04/19 05:34:07;;;;;;;5.60;2.15;;;11.90;79.50;;;;;;6216160;22;20027;-77
2023/04/19 05:36:34;;;;;;;5.95;2.35;;;12.00;79.70;;;;;;6234926;22;20111;-77
2023/04/19 05:39:02;;;;;;;5.03;2.28;;;12.00;79.80;;;;;;6212420;22;20050;-78
2023/04/19 05:41:29;;;;;;;5.45;1.90;;;12.00;79.30;;;;;;6209952;22;20019;-76
2023/04/19 05:43:56;;;;;;;5.30;2.22;;;12.10;79.40;;;;;;6212648;22;20425;-77
2023/04/19 05:46:24;;;;;;;5.45;2.00;;;12.10;79.10;;;;;;6209108;22;20023;-77
2023/04/19 05:48:52;;;;;;;3.55;2.03;;;12.10;79.10;;;;;;6208839;22;20023;-77
2023/04/19 05:51:38;;;;;;;4.00;1.80;;;12.20;79.20;;;;;;6239358;22;20085;-77
2023/04/19 05:54:11;;;;;;;5.38;2.60;;;12.20;78.80;;;;;;6236297;22;20019;-76
2023/04/19 05:56:40;;;;;;;4.97;2.85;;;12.30;78.40;;;;;;6207833;22;20483;-77
2023/04/19 05:59:07;;;;;;;6.20;2.38;;;12.30;78.20;;;;;;6208755;22;20342;-77
2023/04/19 06:01:34;;;;;;;6.72;2.45;;;12.40;78.10;;;;;;6208865;22;20359;-77
2023/04/19 06:04:01;;;;;;;4.82;2.33;;;12.60;78.00;;;;;;6233851;22;20461;-77
2023/04/19 06:06:29;;;;;;;5.20;2.40;;;12.70;78.30;;;;;;6211836;22;20020;-77
2023/04/19 06:08:56;;;;;;;5.90;2.60;;;12.70;77.60;;;;;;6213747;22;20336;-76
2023/04/19 06:11:23;;;;;;;5.80;2.47;;;12.80;78.10;;;;;;6238036;22;20027;-77
2023/04/19 06:13:57;;;;;;;6.05;3.10;;;12.90;77.20;;;;;;6262956;22;20438;-77
2023/04/19 06:16:25;;;;;;;4.53;2.42;;;13.00;76.20;;;;;;6234704;22;20026;-78
2023/04/19 06:18:53;;;;;;;4.68;2.53;;;13.10;75.60;;;;;;6215005;22;20027;-76
2023/04/19 06:21:20;;;;;;;6.70;3.00;;;13.20;75.10;;;;;;6209144;22;20107;-77
2023/04/19 06:23:47;;;;;;;7.45;3.08;;;13.30;75.10;;;;;;6213656;22;20109;-77
2023/04/19 06:26:14;;;;;;;5.13;2.40;;;13.30;75.30;;;;;;6213858;22;20024;-77
2023/04/19 06:28:42;;;;;;;6.28;2.53;;;13.70;74.50;;;;;;6237728;22;20024;-76
2023/04/19 06:31:11;;;;;;;6.55;3.08;;;14.00;73.40;;;;;;6208245;22;20019;-76
2023/04/19 06:33:38;;;;;;;5.95;2.40;;;14.00;73.10;;;;;;6208199;22;20042;-77
2023/04/19 06:36:05;;;;;;;5.88;2.92;;;14.00;72.90;;;;;;6235914;22;20020;-77
2023/04/19 06:38:32;;;;;;;7.00;2.95;;;14.20;72.10;;;;;;6235669;22;20338;-76
2023/04/19 06:40:59;;;;;;;6.85;2.88;;;14.20;71.30;;;;;;6209227;22;20138;-77
2023/04/19 06:43:26;;;;;;;5.68;2.72;;;14.50;71.20;;;;;;6208812;22;20034;-76
2023/04/19 06:46:00;;;;;;;7.18;2.80;;;14.80;70.20;;;;;;6232673;22;20380;-77
2023/04/19 06:48:28;;;;;;;5.78;2.50;;;15.10;69.10;;;;;;6260749;22;20026;-76
2023/04/19 06:50:55;;;;;;;4.18;2.50;;;15.20;68.20;;;;;;6235361;22;20015;-77
2023/04/19 06:53:22;;;;;;;7.00;2.63;;;15.40;67.70;;;;;;6260379;22;20022;-77
2023/04/19 06:55:57;;;;;;;4.85;2.75;;;15.60;67.10;;;;;;6234895;22;20020;-77
2023/04/19 06:58:24;;;;;;;6.15;2.70;;;15.60;65.80;;;;;;6231140;22;20407;-76
2023/04/19 07:00:52;;;;;;;3.65;2.03;;;15.50;64.80;;;;;;6204642;22;20023;-77
2023/04/19 07:03:20;;;;;;;5.50;1.95;;;15.30;65.40;;;;;;6234965;22;20031;-77
2023/04/19 07:05:47;;;;;;;3.80;2.25;;;15.30;66.10;;;;;;6209671;22;20342;-77
2023/04/19 07:08:15;;;;;;;4.38;2.08;;;15.30;66.10;;;;;;6213204;22;20020;-77
2023/04/19 07:10:42;;;;;;;4.43;2.20;;;15.20;66.40;;;;;;6236241;22;20090;-76
2023/04/19 07:13:10;;;;;;;7.22;3.00;;;15.30;66.30;;;;;;6210800;22;20069;-77
2023/04/19 07:15:37;;;;;;;4.53;2.33;;;15.40;66.00;;;;;;6211694;22;20023;-77
2023/04/19 07:18:04;;;;;;;3.97;2.25;;;15.30;66.00;;;;;;6184691;22;20027;-77
2023/04/19 07:20:32;;;;;;;5.07;2.22;;;15.30;66.50;;;;;;6258044;22;20099;-77
2023/04/19 07:22:59;;;;;;;5.53;2.05;;;15.30;65.20;;;;;;6232928;22;20015;-77
2023/04/19 07:25:26;;;;;;;4.88;2.00;;;15.30;65.50;;;;;;6233577;22;20020;-77
2023/04/19 07:27:54;;;;;;;5.30;2.25;;;15.30;64.40;;;;;;6209012;22;20031;-77
2023/04/19 07:30:21;;;;;;;6.78;2.28;;;15.30;65.20;;;;;;6232436;22;20024;-77
2023/04/19 07:32:50;;;;;;;4.40;2.05;;;15.30;65.20;;;;;;6234784;22;20022;-77
2023/04/19 07:35:18;;;;;;;7.60;2.42;;;15.30;65.90;;;;;;6209438;22;20026;-78
2023/04/19 07:37:46;;;;;;;5.00;2.10;;;15.20;66.60;;;;;;6208104;22;20027;-77
2023/04/19 07:40:13;;;;;;;5.88;2.22;;;15.10;65.40;;;;;;6235001;22;20020;-77
2023/04/19 07:42:42;;;;;;;4.32;2.28;;;15.00;66.00;;;;;;6234474;22;20211;-76
2023/04/19 07:45:09;;;;;;;4.82;2.05;;;14.90;65.60;;;;;;6236639;22;20485;-76
2023/04/19 07:47:37;;;;;;;4.55;2.10;;;15.00;66.20;;;;;;6236359;22;20016;-77
2023/04/19 07:50:06;;;;;;;5.30;2.17;;;15.00;66.50;;;;;;6234650;22;20459;-77
2023/04/19 07:52:33;;;;;;;11.50;2.13;;;15.10;67.30;;;;;;6235603;22;20089;-77
2023/04/19 07:55:00;;;;;;;4.13;1.92;;;15.00;65.80;;;;;;6208210;22;20296;-77
2023/04/19 07:57:27;;;;;;;4.05;1.63;;;15.00;65.50;;;;;;6206981;22;20023;-77
2023/04/19 07:59:56;;;;;;;3.08;1.65;;;15.00;65.70;;;;;;6207677;22;20023;-77
2023/04/19 08:02:27;;;;;;;6.97;1.88;;;15.00;64.60;;;;;;6206658;22;20023;-77
2023/04/19 08:04:56;;;;;;;5.13;2.30;;;14.90;64.90;;;;;;6207733;22;20020;-77
2023/04/19 08:07:24;;;;;;;5.05;2.60;;;14.90;65.30;;;;;;6208587;22;20415;-76
2023/04/19 08:09:52;;;;;;;3.88;1.95;;;14.80;64.80;;;;;;6207249;22;20026;-77
2023/04/19 08:12:19;;;;;;;6.38;2.35;;;14.80;64.40;;;;;;6207775;22;20085;-77
2023/04/19 08:14:52;;;;;;;2.78;1.55;;;14.90;64.30;;;;;;6209339;22;20031;-77
2023/04/19 08:17:39;;;;;;;4.57;1.75;;;14.90;64.60;;;;;;6209704;22;20055;-78
2023/04/19 08:20:10;;;;;;;3.28;1.60;;;15.30;65.10;;;;;;6232586;22;20488;-76
2023/04/19 08:22:38;;;;;;;3.22;1.77;;;15.80;64.70;;;;;;6232172;22;20019;-77
2023/04/19 08:25:06;;;;;;;3.83;1.65;;;15.70;63.70;;;;;;6232282;22;20024;-76
2023/04/19 08:27:34;;;;;;;8.40;3.35;;;16.40;63.60;;;;;;6235720;22;20043;-77
2023/04/19 08:30:02;;;;;;;4.93;1.90;;;17.10;63.80;;;;;;6213050;22;20023;-77
2023/04/19 08:32:29;;;;;;;6.22;2.50;;;17.50;60.40;;;;;;6238341;22;20020;-77
2023/04/19 08:34:56;;;;;;;6.18;2.05;;;17.60;61.60;;;;;;6209282;22;20073;-77
2023/04/19 08:37:24;;;;;;;5.30;1.63;;;17.50;62.10;;;;;;6210142;22;20024;-77
2023/04/19 08:39:51;;;;;;;4.60;2.08;;;17.70;61.30;;;;;;6234367;22;20035;-76
2023/04/19 08:42:18;;;;;;;3.67;1.80;;;18.00;60.60;;;;;;6235952;22;20023;-76
2023/04/19 08:45:07;;;;;;;6.30;1.70;;;17.80;58.30;;;;;;6239788;22;20030;-76
2023/04/19 08:47:38;;;;;;;4.30;1.48;;;17.40;59.00;;;;;;6261646;22;20107;-77
2023/04/19 08:50:09;;;;;;;2.35;1.00;;;17.60;58.60;;;;;;6236343;22;20026;-76
2023/04/19 08:52:57;;;;;;;2.13;0.85;;;17.90;55.30;;;;;;6234952;22;20132;-77
2023/04/19 08:55:45;;;;;;;2.97;0.85;;;18.00;54.10;;;;;;6230665;22;20093;-77
2023/04/19 08:58:32;;;;;;;6.13;1.23;;;17.90;54.40;;;;;;6237243;22;20462;-77
2023/04/19 09:01:07;;;;;;;2.55;1.48;;;17.30;53.30;;;;;;6207558;22;20031;-78
2023/04/19 09:03:46;;;;;;;2.58;1.20;;;17.20;54.60;;;;;;6259048;22;20390;-77
2023/04/19 09:06:39;;;;;;;1.85;0.82;;;17.10;54.80;;;;;;6235844;22;20012;-76
2023/04/19 09:09:24;;;;;;;2.83;0.90;;;16.90;53.20;;;;;;6208179;22;20073;-77
2023/04/19 09:11:56;;;;;;;2.05;1.10;;;16.90;54.10;;;;;;6232485;22;20500;-77
2023/04/19 09:14:25;;;;;;;3.13;1.08;;;17.10;56.30;;;;;;6231932;22;20020;-77
2023/04/19 09:16:53;;;;;;;4.75;1.30;;;17.20;56.50;;;;;;6231073;22;20099;-78
2023/04/19 09:19:20;;;;;;;2.65;1.05;;;17.60;58.30;;;;;;6230858;22;20022;-76
2023/04/19 09:21:52;;;;;;;3.42;1.00;;;18.10;59.10;;;;;;6233111;22;20469;-77
2023/04/19 09:24:39;;;;;;;2.53;1.38;;;18.10;57.20;;;;;;6257239;22;20020;-78
2023/04/19 09:27:11;;;;;;;2.25;1.27;;;17.50;58.00;;;;;;6233877;22;20027;-76
2023/04/19 09:29:38;;;;;;;2.20;1.27;;;17.40;58.60;;;;;;6207986;22;20505;-77
2023/04/19 09:32:05;;;;;;;3.72;1.00;;;17.10;58.00;;;;;;6207077;22;20020;-76
2023/04/19 09:34:32;;;;;;;2.10;0.93;;;16.90;59.10;;;;;;6206553;22;20051;-76
2023/04/19 09:37:12;;;;;;;4.55;1.35;;;16.90;58.60;;;;;;6258698;22;20077;-77
2023/04/19 09:39:59;;;;;;;2.40;1.10;;;16.90;59.40;;;;;;6232026;22;20473;-78
2023/04/19 09:42:45;;;;;;;3.85;1.52;;;17.10;59.50;;;;;;6208281;22;20413;-76
2023/04/19 09:45:16;;;;;;;3.72;1.10;;;17.10;59.10;;;;;;6259416;22;20016;-77
2023/04/19 09:48:08;;;;;;;3.35;1.50;;;17.20;58.70;;;;;;6236139;22;20428;-77
2023/04/19 09:50:50;;;;;;;3.25;1.10;;;17.10;59.20;;;;;;6232522;22;20020;-77
2023/04/19 09:53:28;;;;;;;2.92;1.17;;;17.10;59.50;;;;;;6235761;22;20089;-77
2023/04/19 09:55:55;;;;;;;3.08;1.40;;;17.60;60.50;;;;;;6233050;22;20019;-77
2023/04/19 09:58:29;;;;;;;2.85;1.70;;;17.60;60.40;;;;;;6261002;22;20146;-76
2023/04/19 10:01:13;;;;;;;5.35;2.00;;;17.50;59.20;;;;;;6235824;22;20051;-77
2023/04/19 10:03:48;;;;;;;5.43;2.22;;;17.40;60.00;;;;;;6230868;22;20023;-77
2023/04/19 10:06:18;;;;;;;5.30;2.55;;;17.50;61.50;;;;;;6232541;22;20031;-76
2023/04/19 10:08:49;;;;;;;4.13;2.30;;;17.50;62.20;;;;;;6232283;22;20051;-76
2023/04/19 10:11:20;;;;;;;5.00;1.92;;;17.60;62.30;;;;;;6231604;22;20032;-77
2023/04/19 10:13:52;;;;;;;4.65;2.13;;;17.80;62.40;;;;;;6232018;22;20031;-77
2023/04/19 10:16:19;;;;;;;3.53;2.47;;;18.20;61.40;;;;;;6232887;22;20035;-77
2023/04/19 10:18:49;;;;;;;4.82;2.40;;;18.80;64.70;;;;;;6232271;22;20538;-77
2023/04/19 10:21:18;;;;;;;6.10;2.53;;;19.10;62.20;;;;;;6229488;22;20518;-77
2023/04/19 10:23:45;;;;;;;5.68;2.35;;;19.40;60.40;;;;;;6231780;22;20418;-77
2023/04/19 10:26:13;;;;;;;4.82;2.08;;;19.40;59.30;;;;;;6231126;22;20154;-77
2023/04/19 10:28:41;;;;;;;4.28;1.75;;;19.40;57.50;;;;;;6207287;22;20352;-76
2023/04/19 10:31:12;;;;;;;2.53;1.50;;;19.70;57.10;;;;;;6208861;22;20020;-77
2023/04/19 10:33:39;;;;;;;2.67;1.20;;;19.70;56.90;;;;;;6232931;22;20080;-78
2023/04/19 10:36:13;;;;;;;2.95;1.63;;;19.90;57.10;;;;;;6256846;22;20023;-77
2023/04/19 10:38:43;;;;;;;3.03;1.52;;;19.50;56.70;;;;;;6233145;22;20110;-77
2023/04/19 10:41:10;;;;;;;3.33;1.35;;;19.20;55.40;;;;;;6234062;22;20027;-77
2023/04/19 10:43:56;;;;;;;2.63;1.25;;;19.30;54.90;;;;;;6234043;22;20143;-78
2023/04/19 10:46:24;;;;;;;3.28;1.42;;;18.90;55.30;;;;;;6230019;22;20016;-78
2023/04/19 10:48:59;;;;;;;1.98;1.10;;;18.60;55.50;;;;;;6262194;22;20187;-77
2023/04/19 10:51:43;;;;;;;2.90;1.42;;;18.30;54.00;;;;;;6256317;22;20016;-76
2023/04/19 10:54:30;;;;;;;3.55;1.95;;;18.30;56.30;;;;;;6258627;22;20016;-77
2023/04/19 10:57:04;;;;;;;2.28;1.25;;;18.20;57.00;;;;;;6233814;22;20050;-77
2023/04/19 10:59:43;;;;;;;4.53;1.67;;;18.30;55.60;;;;;;6258394;22;20363;-77
2023/04/19 11:02:23;;;;;;;5.10;1.30;;;18.20;57.60;;;;;;6229094;22;20028;-76
2023/04/19 11:04:51;;;;;;;2.90;1.50;;;18.10;56.70;;;;;;6203700;22;20027;-74
2023/04/19 11:07:20;;;;;;;3.40;1.33;;;18.00;55.80;;;;;;6233751;22;20506;-78
2023/04/19 11:09:48;;;;;;;3.15;1.48;;;18.00;58.40;;;;;;6228884;22;20078;-77
2023/04/19 11:12:20;;;;;;;2.50;1.17;;;18.10;57.00;;;;;;6232145;22;20034;-78
2023/04/19 11:14:58;;;;;;;2.67;1.35;;;18.00;57.10;;;;;;6203306;22;20435;-75
2023/04/19 11:17:30;;;;;;;3.58;1.80;;;18.20;58.70;;;;;;6228413;22;20035;-78
2023/04/19 11:20:05;;;;;;;2.95;1.52;;;18.30;57.20;;;;;;6261210;22;20031;-78
2023/04/19 11:22:35;;;;;;;3.13;1.23;;;18.30;57.40;;;;;;6231266;22;20032;-77
2023/04/19 11:25:08;;;;;;;3.28;1.67;;;18.40;57.80;;;;;;6230787;22;20520;-77
2023/04/19 11:27:35;;;;;;;6.32;1.90;;;18.60;58.90;;;;;;6229346;22;20023;-77
2023/04/19 11:30:07;;;;;;;4.30;2.03;;;19.40;58.70;;;;;;6255837;22;20024;-77
2023/04/19 11:32:35;;;;;;;6.18;2.53;;;19.80;57.60;;;;;;6258991;22;20074;-77
2023/04/19 11:35:07;;;;;;;6.15;2.40;;;19.40;55.90;;;;;;6261128;22;20047;-74
2023/04/19 11:37:35;;;;;;;5.90;1.90;;;19.10;55.10;;;;;;6233333;22;20081;-76
2023/04/19 11:40:05;;;;;;;3.53;1.80;;;19.30;55.10;;;;;;6232941;22;20375;-77
2023/04/19 11:42:33;;;;;;;3.63;2.40;;;19.30;55.80;;;;;;6233318;22;20051;-77
2023/04/19 11:45:00;;;;;;;8.55;5.05;;;19.30;56.50;;;;;;6232412;22;20016;-76
2023/04/19 11:47:27;;;;;;;8.35;5.47;;;19.30;60.90;;;;;;6206829;22;20336;-77
2023/04/19 11:49:57;;;;;;;8.55;5.38;;;19.00;62.60;;;;;;6232308;22;20526;-76
2023/04/19 11:52:25;;;;;;;7.47;4.93;;;19.10;61.70;;;;;;6258902;22;20015;-76
2023/04/19 11:54:53;;;;;;;7.47;4.93;;;19.20;61.80;;;;;;6232394;22;20025;-76
2023/04/19 11:57:30;;;;;;;7.88;5.00;;;18.90;62.00;;;;;;6259832;22;20446;-76
2023/04/19 12:00:11;;;;;;;8.05;4.97;;;18.30;63.10;;;;;;6231931;22;20136;-76
2023/04/19 12:02:39;;;;;;;9.23;5.53;;;18.00;65.10;;;;;;6263556;22;20035;-76
2023/04/19 12:05:09;;;;;;;8.77;5.55;;;17.90;65.30;;;;;;6259976;22;20039;-76
2023/04/19 12:07:36;;;;;;;7.85;4.65;;;17.90;65.10;;;;;;6231941;22;20174;-77
2023/04/19 12:10:13;;;;;;;9.02;5.38;;;17.80;65.50;;;;;;6233337;22;20023;-77
2023/04/19 12:12:40;;;;;;;8.60;5.15;;;17.80;64.90;;;;;;6238901;22;20090;-76
2023/04/19 12:15:07;;;;;;;7.78;4.63;;;18.50;64.30;;;;;;6206755;22;20023;-75
2023/04/19 12:17:58;;;;;;;9.00;5.13;;;18.70;63.30;;;;;;6206574;22;20023;-75
2023/04/19 12:20:36;;;;;;;6.00;4.40;;;18.50;62.60;;;;;;6256118;22;20024;-76
2023/04/19 12:23:04;;;;;;;6.43;4.45;;;18.40;64.50;;;;;;6235510;22;20363;-76
2023/04/19 12:25:32;;;;;;;10.65;4.93;;;18.70;64.40;;;;;;6205312;22;20441;-76
2023/04/19 12:28:01;;;;;;;12.45;6.82;;;18.90;62.20;;;;;;6231326;22;20027;-76
2023/04/19 12:30:29;;;;;;;10.40;7.00;;;19.10;65.30;;;;;;6232727;22;20031;-76
2023/04/19 12:32:58;;;;;;;10.15;6.22;;;18.60;66.20;;;;;;6257510;22;20042;-76
2023/04/19 12:35:28;;;;;;;11.48;6.95;;;18.50;65.90;;;;;;6236352;22;20069;-76
2023/04/19 12:37:58;;;;;;;9.18;6.65;;;18.70;67.70;;;;;;6230931;22;20028;-77
2023/04/19 12:40:26;;;;;;;9.73;6.20;;;18.50;65.90;;;;;;6232163;22;20107;-76
2023/04/19 12:42:53;;;;;;;8.65;6.25;;;18.30;66.50;;;;;;6231919;22;20113;-76
2023/04/19 12:45:20;;;;;;;7.85;5.80;;;18.10;66.90;;;;;;6256677;22;20536;-76
2023/04/19 12:47:48;;;;;;;7.45;5.53;;;17.80;67.10;;;;;;6233260;22;20423;-77
2023/04/19 12:50:15;;;;;;;9.48;6.35;;;18.10;68.40;;;;;;6206765;22;20020;-77
2023/04/19 12:52:43;;;;;;;10.43;6.20;;;18.30;68.70;;;;;;6205876;22;20023;-77
2023/04/19 12:55:10;;;;;;;12.43;7.70;;;18.30;68.40;;;;;;6233349;22;20073;-75
2023/04/19 12:57:38;;;;;;;10.85;7.05;;;18.40;69.10;;;;;;6256700;22;20102;-76
2023/04/19 13:00:06;;;;;;;9.60;6.93;;;18.30;68.60;;;;;;6230405;22;20335;-76